.
WxDataArchive / Data Records for 2006-04-26
2006-04-25 April 2006 2006-04-27

Data Records for Wednesday, 26 April 2006

Time	Temp	Chill	HIndex	Humid	Dewpt	 Wind 	HiWind	WindDir	Rain 	Barom 
-----	----	-----	------	-----	-----	------	------	-------	-----	----- 
00:00	34.6	34.6	34.6	86	30.9	0	0	---	0.00	30.049 
00:05	34.4	34.4	34.4	86	30.7	0	0	---	0.00	30.049 
00:10	34.1	34.1	34.1	87	30.6	0	0	---	0.00	30.049 
00:15	34.0	34.0	34.0	87	30.5	0	0	---	0.00	30.055 
00:20	33.7	33.7	33.7	88	30.5	0	0	---	0.00	30.055 
00:25	33.5	33.5	33.5	88	30.3	0	0	---	0.00	30.055 
00:30	33.4	33.4	33.4	88	30.2	0	0	---	0.00	30.058 
00:35	33.4	33.4	33.4	89	30.5	0	0	---	0.00	30.058 
00:40	33.2	33.2	33.2	89	30.3	0	0	---	0.00	30.058 
00:45	33.2	33.2	33.2	89	30.3	0	0	---	0.00	30.063 
00:50	33.1	33.1	33.1	89	30.2	0	0	---	0.00	30.063 
00:55	32.8	32.8	32.8	89	29.9	0	0	---	0.00	30.063 
01:00	32.7	32.7	32.7	89	29.8	0	0	---	0.00	30.060 
01:05	32.5	32.5	32.5	90	29.9	0	0	---	0.00	30.060 
01:10	32.4	32.4	32.4	90	29.8	0	0	---	0.00	30.060 
01:15	32.2	32.2	32.2	90	29.6	0	0	---	0.00	30.060 
01:20	31.9	31.9	31.9	90	29.3	0	0	---	0.00	30.060 
01:25	31.9	31.9	31.9	90	29.3	0	0	---	0.00	30.060 
01:30	31.8	31.8	31.8	91	29.5	0	0	---	0.00	30.061 
01:35	31.8	31.8	31.8	91	29.5	0	0	---	0.00	30.061 
01:40	31.6	31.6	31.6	91	29.3	0	0	---	0.00	30.061 
01:45	31.5	31.5	31.5	91	29.2	0	0	---	0.00	30.067 
01:50	31.3	31.3	31.3	91	29.0	0	0	---	0.00	30.067 
01:55	31.2	31.2	31.2	91	28.9	0	0	---	0.00	30.067 
02:00	31.0	31.0	31.0	91	28.7	0	0	---	0.00	30.068 
02:05	30.9	30.9	30.9	91	28.6	0	0	---	0.00	30.068 
02:10	30.9	30.9	30.9	91	28.6	0	0	---	0.00	30.068 
02:15	30.7	30.7	30.7	91	28.4	0	0	---	0.00	30.066 
02:20	30.7	30.7	30.7	91	28.4	0	0	---	0.00	30.066 
02:25	30.6	30.6	30.6	91	28.3	0	0	---	0.00	30.066 
02:30	30.4	30.4	30.4	91	28.1	0	0	---	0.00	30.057 
02:35	30.3	30.3	30.3	91	28.0	0	0	---	0.00	30.057 
02:40	30.1	30.1	30.1	91	27.8	0	0	---	0.00	30.057 
02:45	30.1	30.1	30.1	92	28.1	0	0	---	0.00	30.054 
02:50	30.0	30.0	30.0	92	28.0	0	0	---	0.00	30.054 
02:55	30.0	30.0	30.0	92	28.0	0	0	---	0.00	30.054 
03:00	30.0	30.0	30.0	92	28.0	0	0	---	0.00	30.052 
03:05	30.0	30.0	30.0	92	28.0	0	0	---	0.00	30.052 
03:10	30.0	30.0	30.0	92	28.0	0	0	---	0.00	30.052 
03:15	29.8	29.8	29.8	92	27.8	0	0	---	0.00	30.052 
03:20	29.7	29.7	29.7	92	27.7	0	0	---	0.00	30.052 
03:25	29.7	29.7	29.7	92	27.7	0	0	---	0.00	30.052 
03:30	29.5	29.5	29.5	92	27.5	0	0	---	0.00	30.051 
03:35	29.5	29.5	29.5	92	27.5	0	0	---	0.00	30.051 
03:40	29.4	29.4	29.4	92	27.4	0	0	---	0.00	30.051 
03:45	29.4	29.4	29.4	92	27.4	0	0	---	0.00	30.045 
03:50	29.4	29.4	29.4	92	27.4	0	0	---	0.00	30.045 
03:55	29.4	29.4	29.4	92	27.4	0	0	---	0.00	30.045 
04:00	29.3	29.3	29.3	92	27.3	0	0	---	0.00	30.044 
04:05	29.3	29.3	29.3	92	27.3	0	0	---	0.00	30.044 
04:10	29.3	29.3	29.3	92	27.3	0	0	---	0.00	30.044 
04:15	29.1	29.1	29.1	92	27.1	0	0	---	0.00	30.044 
04:20	29.1	29.1	29.1	92	27.1	0	0	---	0.00	30.044 
04:25	29.3	29.3	29.3	92	27.3	0	0	---	0.00	30.044 
04:30	29.4	29.4	29.4	93	27.6	0	0	---	0.00	30.045 
04:35	29.5	29.5	29.5	93	27.7	0	0	---	0.00	30.045 
04:40	29.5	29.5	29.5	93	27.7	0	0	---	0.00	30.045 
04:45	29.5	29.5	29.5	93	27.7	0	0	---	0.00	30.048 
04:50	29.7	29.7	29.7	93	27.9	0	0	---	0.00	30.048 
04:55	29.7	29.7	29.7	93	27.9	0	0	---	0.00	30.048 
05:00	29.5	29.5	29.5	93	27.7	0	0	---	0.00	30.047 
05:05	29.5	29.5	29.5	93	27.7	0	0	---	0.00	30.047 
05:10	29.5	29.5	29.5	93	27.7	0	0	---	0.00	30.047 
05:15	29.4	29.4	29.4	93	27.6	0	0	---	0.00	30.050 
05:20	29.4	29.4	29.4	93	27.6	0	0	---	0.00	30.050 
05:25	29.3	29.3	29.3	93	27.5	0	0	---	0.00	30.050 
05:30	29.1	29.1	29.1	93	27.3	0	0	---	0.00	30.051 
05:35	29.1	29.1	29.1	93	27.3	0	0	---	0.00	30.051 
05:40	29.0	29.0	29.0	93	27.2	0	0	---	0.00	30.051 
05:45	29.0	29.0	29.0	93	27.2	0	0	---	0.00	30.053 
05:50	28.8	28.8	28.8	93	27.0	0	0	---	0.00	30.053 
05:55	28.7	28.7	28.7	93	26.9	0	0	---	0.00	30.053 
06:00	28.5	28.5	28.5	93	26.7	0	0	---	0.00	30.052 
06:05	28.4	28.4	28.4	93	26.6	0	0	---	0.00	30.052 
06:10	28.2	28.2	28.2	93	26.4	0	0	---	0.00	30.052 
06:15	28.1	28.1	28.1	93	26.3	0	0	---	0.00	30.051 
06:20	28.1	28.1	28.1	93	26.3	0	0	---	0.00	30.051 
06:25	28.1	28.1	28.1	93	26.3	0	0	---	0.00	30.051 
06:30	28.1	28.1	28.1	93	26.3	0	0	---	0.00	30.052 
06:35	27.9	27.9	27.9	93	26.1	0	0	---	0.00	30.052 
06:40	27.9	27.9	27.9	93	26.1	0	0	---	0.00	30.052 
06:45	27.9	27.9	27.9	93	26.1	0	0	---	0.00	30.053 
06:50	27.9	27.9	27.9	93	26.1	0	0	---	0.00	30.053 
06:55	28.1	28.1	28.1	93	26.3	0	0	---	0.00	30.053 
07:00	28.1	28.1	28.1	93	26.3	0	0	---	0.00	30.051 
07:05	28.1	28.1	28.1	93	26.3	0	0	---	0.00	30.051 
07:10	28.1	28.1	28.1	93	26.3	0	0	---	0.00	30.051 
07:15	28.2	28.2	28.2	93	26.4	0	0	---	0.00	30.054 
07:20	28.5	28.5	28.5	93	26.7	0	0	---	0.00	30.054 
07:25	28.7	28.7	28.7	93	26.9	0	0	---	0.00	30.054 
07:30	29.1	29.1	29.1	93	27.3	0	0	---	0.00	30.057 
07:35	29.7	29.7	29.7	93	27.9	0	0	---	0.00	30.057 
07:40	30.3	30.3	30.3	94	28.8	0	0	---	0.00	30.057 
07:45	31.0	31.0	31.0	94	29.5	0	0	---	0.00	30.060 
07:50	31.6	31.6	31.6	94	30.1	0	0	---	0.00	30.060 
07:55	32.4	32.4	32.4	94	30.9	0	0	---	0.00	30.060 
08:00	32.9	32.9	32.9	94	31.4	0	0	---	0.00	30.062 
08:05	33.4	33.4	33.4	94	31.9	0	0	---	0.00	30.062 
08:10	34.0	34.0	34.0	94	32.5	0	0	---	0.00	30.062 
08:15	34.7	34.7	34.7	94	33.2	0	1	90	0.00	30.064 
08:20	35.3	35.3	35.3	94	33.7	0	0	---	0.00	30.064 
08:25	35.8	35.8	35.8	93	34.0	0	0	---	0.00	30.064 
08:30	36.6	36.6	36.6	92	34.5	0	0	---	0.00	30.063 
08:35	37.5	37.5	37.5	90	34.8	0	1	90	0.00	30.063 
08:40	38.3	38.3	38.3	86	34.5	0	1	90	0.00	30.063 
08:45	38.9	38.9	38.9	81	33.6	0	1	90	0.00	30.062 
08:50	39.6	39.6	39.6	78	33.3	0	2	90	0.00	30.062 
08:55	40.3	40.3	40.3	74	32.7	1	3	270	0.00	30.062 
09:00	40.5	40.5	40.5	74	32.9	0	1	270	0.00	30.066 
09:05	41.2	41.2	41.2	76	34.2	0	1	270	0.00	30.066 
09:10	42.2	42.2	42.2	72	33.8	0	1	270	0.00	30.066 
09:15	42.9	42.9	42.9	65	32.0	1	3	270	0.00	30.070 
09:20	43.5	43.5	43.5	65	32.5	1	3	270	0.00	30.070 
09:25	43.9	43.9	43.9	64	32.5	1	2	270	0.00	30.070 
09:30	44.5	44.5	44.5	57	30.2	1	2	270	0.00	30.068 
09:35	44.9	44.9	44.9	62	32.7	0	2	292	0.00	30.068 
09:40	45.4	45.4	45.4	60	32.3	0	2	292	0.00	30.068 
09:45	45.8	45.8	45.8	59	32.3	1	3	292	0.00	30.059 
09:50	46.2	46.2	46.2	58	32.2	0	2	270	0.00	30.059 
09:55	46.5	46.5	46.5	60	33.4	1	3	270	0.00	30.059 
10:00	46.5	46.5	46.5	55	31.2	1	2	270	0.00	30.057 
10:05	47.3	47.3	47.3	51	30.1	1	4	270	0.00	30.057 
10:10	47.9	47.9	47.9	49	29.7	1	3	248	0.00	30.057 
10:15	48.5	48.5	48.5	54	32.6	1	3	248	0.00	30.053 
10:20	48.8	48.8	48.8	47	29.5	1	3	248	0.00	30.053 
10:25	48.9	48.9	48.9	45	28.5	1	4	248	0.00	30.053 
10:30	48.9	48.9	48.9	41	26.2	1	3	0	0.00	30.049 
10:35	49.4	49.4	49.4	46	29.5	1	3	315	0.00	30.049 
10:40	49.2	49.2	49.2	36	23.4	1	3	270	0.00	30.049 
10:45	49.8	49.8	49.8	37	24.6	1	3	270	0.00	30.046 
10:50	49.9	49.9	49.9	38	25.3	1	3	292	0.00	30.046 
10:55	50.2	50.2	50.2	39	26.2	1	4	90	0.00	30.046 
11:00	50.4	50.4	50.4	40	27.0	1	3	90	0.00	30.042 
11:05	50.7	50.7	50.7	40	27.3	1	4	90	0.00	30.042 
11:10	51.1	51.1	51.1	46	31.0	1	4	90	0.00	30.042 
11:15	51.3	51.3	51.3	43	29.6	1	4	90	0.00	30.040 
11:20	51.9	51.9	51.9	37	26.5	1	3	90	0.00	30.040 
11:25	51.7	51.7	51.7	35	24.9	1	3	338	0.00	30.040 
11:30	51.4	51.4	51.4	37	26.0	1	2	338	0.00	30.039 
11:35	51.3	51.3	51.3	35	24.6	1	2	338	0.00	30.039 
11:40	52.2	52.2	52.2	42	29.8	1	3	270	0.00	30.039 
11:45	52.2	52.2	52.2	44	31.0	1	4	248	0.00	30.038 
11:50	52.3	52.3	52.3	35	25.5	1	5	90	0.00	30.038 
11:55	52.9	52.9	52.9	43	31.0	0	2	90	0.00	30.038 
12:00	53.5	53.5	53.5	36	27.2	1	4	225	0.00	30.031 
12:05	53.6	53.6	53.6	32	24.5	1	3	315	0.00	30.031 
12:10	53.5	53.5	53.5	35	26.5	1	4	338	0.00	30.031 
12:15	53.5	53.5	53.5	34	25.8	1	2	338	0.00	30.029 
12:20	54.1	54.1	54.1	39	29.7	1	4	270	0.00	30.029 
12:25	54.4	54.4	54.4	34	26.6	1	5	112	0.00	30.029 
12:30	54.4	54.4	54.4	32	25.2	1	3	135	0.00	30.024 
12:35	54.2	54.2	54.2	32	25.0	2	5	248	0.00	30.024 
12:40	54.4	54.4	54.4	35	27.3	2	5	270	0.00	30.024 
12:45	54.7	54.7	54.7	31	24.7	1	6	248	0.00	30.014 
12:50	54.7	54.7	54.7	36	28.3	2	5	315	0.00	30.014 
12:55	54.5	54.5	54.5	30	23.7	1	4	248	0.00	30.014 
13:00	54.8	54.8	54.8	40	30.9	1	4	248	0.00	30.008 
13:05	55.3	55.3	55.3	36	28.8	1	3	248	0.00	30.008 
13:10	55.3	55.3	55.3	35	28.1	1	3	315	0.00	30.008 
13:15	55.4	55.4	55.4	34	27.5	0	2	338	0.00	29.997 
13:20	56.3	56.3	56.3	34	28.3	1	2	22	0.00	29.997 
13:25	56.6	56.6	56.6	34	28.6	2	5	270	0.00	29.997 
13:30	56.3	56.3	56.3	29	24.5	1	4	0	0.00	29.993 
13:35	56.7	56.7	56.7	38	31.4	1	4	248	0.00	29.993 
13:40	56.7	56.7	56.7	35	29.4	2	4	248	0.00	29.993 
13:45	57.0	57.0	57.0	33	28.2	1	4	112	0.00	29.981 
13:50	56.9	56.9	56.9	34	28.8	1	4	292	0.00	29.981 
13:55	56.9	56.9	56.9	28	24.1	1	3	315	0.00	29.981 
14:00	56.9	56.9	56.9	27	23.3	1	3	315	0.00	29.975 
14:05	57.5	57.5	57.5	36	30.8	1	3	270	0.00	29.975 
14:10	57.3	57.3	57.3	30	26.1	2	5	292	0.00	29.975 
14:15	57.2	57.2	57.2	31	26.8	1	3	338	0.00	29.977 
14:20	57.2	57.2	57.2	30	26.1	1	3	338	0.00	29.977 
14:25	57.3	57.3	57.3	32	27.7	1	3	338	0.00	29.977 
14:30	57.2	57.2	57.2	30	26.1	1	4	338	0.00	29.969 
14:35	57.5	57.5	57.5	29	25.5	1	4	338	0.00	29.969 
14:40	57.8	57.8	57.8	28	24.9	1	4	338	0.00	29.969 
14:45	58.4	58.4	58.4	28	25.4	2	3	248	0.00	29.964 
14:50	58.4	58.4	58.4	29	26.3	1	3	112	0.00	29.964 
14:55	58.7	58.7	58.7	28	25.7	2	7	248	0.00	29.964 
15:00	59.2	59.2	59.2	33	30.1	1	4	292	0.00	29.961 
15:05	59.6	59.6	59.6	31	28.9	1	2	292	0.00	29.961 
15:10	59.8	59.8	59.8	29	27.5	1	3	292	0.00	29.961 
15:15	59.9	59.9	59.9	29	27.6	2	6	248	0.00	29.958 
15:20	60.1	60.1	60.1	33	30.9	2	5	248	0.00	29.958 
15:25	60.1	60.1	60.1	31	29.4	1	6	338	0.00	29.958 
15:30	60.5	60.5	60.5	30	28.9	3	5	248	0.00	29.948 
15:35	60.4	60.4	60.4	33	31.2	2	4	248	0.00	29.948 
15:40	60.2	60.2	60.2	29	27.8	2	4	315	0.00	29.948 
15:45	60.1	60.1	60.1	33	30.9	1	4	338	0.00	29.944 
15:50	59.9	59.9	59.9	33	30.7	1	4	338	0.00	29.944 
15:55	60.1	60.1	60.1	29	27.7	1	2	158	0.00	29.944 
16:00	60.5	60.5	60.5	27	26.4	1	2	135	0.00	29.931 
16:05	60.7	60.7	60.7	26	25.6	1	3	338	0.00	29.931 
16:10	60.7	60.7	60.7	28	27.4	2	4	338	0.00	29.931 
16:15	60.4	60.4	60.4	29	28.0	2	5	338	0.00	29.929 
16:20	60.4	60.4	60.4	31	29.6	2	5	338	0.00	29.929 
16:25	60.7	60.7	60.7	31	29.9	1	3	0	0.00	29.929 
16:30	60.5	60.5	60.5	28	27.2	1	3	338	0.00	29.926 
16:35	60.4	60.4	60.4	31	29.6	1	3	45	0.00	29.926 
16:40	60.4	60.4	60.4	30	28.8	2	5	338	0.00	29.926 
16:45	60.2	60.2	60.2	29	27.8	2	5	248	0.00	29.916 
16:50	60.5	60.5	60.5	29	28.1	1	5	45	0.00	29.916 
16:55	60.9	60.9	60.9	28	27.6	1	4	292	0.00	29.916 
17:00	60.5	60.5	60.5	28	27.2	2	4	292	0.00	29.911 
17:05	60.5	60.5	60.5	30	28.9	1	3	338	0.00	29.911 
17:10	60.9	60.9	60.9	33	31.6	1	3	22	0.00	29.911 
17:15	60.9	60.9	60.9	27	26.7	1	3	292	0.00	29.911 
17:20	61.0	61.0	61.0	29	28.5	1	4	338	0.00	29.911 
17:25	60.7	60.7	60.7	28	27.4	1	3	315	0.00	29.911 
17:30	60.7	60.7	60.7	31	29.9	1	4	338	0.00	29.910 
17:35	60.7	60.7	60.7	28	27.4	1	3	22	0.00	29.910 
17:40	60.9	60.9	60.9	27	26.7	1	3	270	0.00	29.910 
17:45	60.9	60.9	60.9	27	26.7	2	9	270	0.00	29.905 
17:50	60.9	60.9	60.9	28	27.6	1	6	22	0.00	29.905 
17:55	60.9	60.9	60.9	27	26.7	1	2	338	0.00	29.905 
18:00	61.0	61.0	61.0	28	27.7	1	2	270	0.00	29.901 
18:05	60.9	60.9	60.9	27	26.7	1	3	22	0.00	29.901 
18:10	60.9	60.9	60.9	27	26.7	2	5	270	0.00	29.901 
18:15	60.5	60.5	60.5	28	27.2	1	3	338	0.00	29.899 
18:20	60.5	60.5	60.5	27	26.4	2	5	248	0.00	29.899 
18:25	60.7	60.7	60.7	28	27.4	1	3	248	0.00	29.899 
18:30	60.7	60.7	60.7	28	27.4	2	5	248	0.00	29.898 
18:35	60.7	60.7	60.7	27	26.5	1	3	292	0.00	29.898 
18:40	60.5	60.5	60.5	29	28.1	1	3	248	0.00	29.898 
18:45	60.5	60.5	60.5	27	26.4	1	4	248	0.00	29.897 
18:50	60.5	60.5	60.5	28	27.2	1	3	315	0.00	29.897 
18:55	60.4	60.4	60.4	28	27.1	0	3	292	0.00	29.897 
19:00	60.4	60.4	60.4	27	26.3	1	5	338	0.00	29.898 
19:05	60.2	60.2	60.2	27	26.1	1	3	248	0.00	29.898 
19:10	60.2	60.2	60.2	30	28.7	0	2	270	0.00	29.898 
19:15	60.1	60.1	60.1	28	26.9	0	2	315	0.00	29.890 
19:20	59.9	59.9	59.9	27	25.8	0	2	292	0.00	29.890 
19:25	59.8	59.8	59.8	28	26.6	0	2	315	0.00	29.890 
19:30	59.6	59.6	59.6	27	25.6	1	3	292	0.00	29.888 
19:35	59.3	59.3	59.3	27	25.3	1	4	270	0.00	29.888 
19:40	59.0	59.0	59.0	28	25.9	1	3	270	0.00	29.888 
19:45	59.0	59.0	59.0	27	25.1	1	3	292	0.00	29.884 
19:50	58.9	58.9	58.9	28	25.9	1	3	292	0.00	29.884 
19:55	58.7	58.7	58.7	27	24.8	1	3	270	0.00	29.884 
20:00	58.4	58.4	58.4	28	25.4	1	4	270	0.00	29.889 
20:05	58.1	58.1	58.1	28	25.2	0	2	270	0.00	29.889 
20:10	58.0	58.0	58.0	28	25.1	0	1	292	0.00	29.889 
20:15	57.5	57.5	57.5	29	25.5	0	1	292	0.00	29.884 
20:20	57.0	57.0	57.0	30	25.9	0	1	292	0.00	29.884 
20:25	56.7	56.7	56.7	30	25.6	0	1	292	0.00	29.884 
20:30	56.3	56.3	56.3	31	26.1	0	0	---	0.00	29.889 
20:35	55.9	55.9	55.9	31	25.7	0	1	292	0.00	29.889 
20:40	55.6	55.6	55.6	32	26.2	0	1	292	0.00	29.889 
20:45	55.1	55.1	55.1	33	26.5	0	0	---	0.00	29.890 
20:50	54.8	54.8	54.8	32	25.5	0	1	292	0.00	29.890 
20:55	54.5	54.5	54.5	34	26.7	0	0	---	0.00	29.890 
21:00	54.2	54.2	54.2	34	26.4	0	0	---	0.00	29.896 
21:05	53.8	53.8	53.8	36	27.5	0	0	---	0.00	29.896 
21:10	53.3	53.3	53.3	36	27.0	0	0	---	0.00	29.896 
21:15	53.1	53.1	53.1	36	26.9	0	0	---	0.00	29.899 
21:20	52.9	52.9	52.9	36	26.7	0	1	292	0.00	29.899 
21:25	52.8	52.8	52.8	36	26.6	0	1	292	0.00	29.899 
21:30	52.8	52.8	52.8	36	26.6	0	1	292	0.00	29.904 
21:35	52.8	52.8	52.8	36	26.6	0	1	292	0.00	29.904 
21:40	52.8	52.8	52.8	35	25.9	0	1	292	0.00	29.904 
21:45	52.5	52.5	52.5	36	26.3	0	0	---	0.00	29.909 
21:50	52.2	52.2	52.2	37	26.7	0	0	---	0.00	29.909 
21:55	51.7	51.7	51.7	37	26.3	0	0	---	0.00	29.909 
22:00	51.3	51.3	51.3	38	26.6	0	0	---	0.00	29.918 
22:05	51.0	51.0	51.0	39	26.9	0	0	---	0.00	29.918 
22:10	50.7	50.7	50.7	40	27.3	0	0	---	0.00	29.918 
22:15	50.2	50.2	50.2	42	28.0	0	0	---	0.00	29.919 
22:20	49.8	49.8	49.8	42	27.6	0	0	---	0.00	29.919 
22:25	49.4	49.4	49.4	43	27.9	0	0	---	0.00	29.919 
22:30	48.8	48.8	48.8	44	27.9	0	0	---	0.00	29.921 
22:35	48.3	48.3	48.3	47	29.0	0	0	---	0.00	29.921 
22:40	47.7	47.7	47.7	47	28.5	0	0	---	0.00	29.921 
22:45	47.3	47.3	47.3	48	28.6	0	0	---	0.00	29.923 
22:50	47.0	47.0	47.0	49	28.8	0	0	---	0.00	29.923 
22:55	46.7	46.7	46.7	50	29.1	0	0	---	0.00	29.923 
23:00	46.2	46.2	46.2	50	28.6	0	0	---	0.00	29.922 
23:05	46.0	46.0	46.0	51	28.9	0	0	---	0.00	29.922 
23:10	45.8	45.8	45.8	52	29.2	0	0	---	0.00	29.922 
23:15	45.5	45.5	45.5	53	29.4	0	0	---	0.00	29.919 
23:20	45.4	45.4	45.4	54	29.7	0	0	---	0.00	29.919 
23:25	45.1	45.1	45.1	53	29.0	0	0	---	0.00	29.919 
23:30	44.8	44.8	44.8	54	29.2	0	0	---	0.00	29.919 
23:35	44.5	44.5	44.5	54	28.9	0	0	---	0.00	29.919 
23:40	44.1	44.1	44.1	54	28.5	0	0	---	0.00	29.919 
23:45	43.8	43.8	43.8	56	29.1	0	0	---	0.00	29.916 
23:50	43.6	43.6	43.6	58	29.8	0	0	---	0.00	29.916 
23:55	43.3	43.3	43.3	57	29.1	0	0	---	0.00	29.916 

CoCoRaHS
IN-AL-39
A2 Web Hosting
Creative Commons License
GoDaddy
Look for:

loaded 2017-10-16 18:18:04 • last modified 2010-11-18 10:43:29
Privacy PolicyDisclaimer
• wx.awcolley.com is powered by PmWiki v.2002016 •
• all content (unless otherwise noted) © 2017 A W Colley